Time;durP1;ratioP1;P1;durP2;ratioP2;P2;SDS_P1;SDS_P2;PMS_P1;PMS_P2;Temp;Humidity;BMP_temperature;BMP_pressure;BME280_temperature;BME280_humidity;BME280_pressure;Samples;Min_cycle;Max_cycle;Signal;HPM_P1;HPM_P2
2022/08/08 00:00:34;;;;;;;9.15;3.08;;;;;;;23.51;100.00;100526.50;4976169;28;20088;-87
2022/08/08 00:03:12;;;;;;;6.10;3.10;;;;;;;23.61;100.00;100526.66;4978646;28;20496;-86
2022/08/08 00:06:00;;;;;;;5.63;3.55;;;;;;;23.49;100.00;100528.63;4994219;28;20030;-86
2022/08/08 00:08:45;;;;;;;4.57;3.33;;;;;;;23.35;100.00;100527.28;4992714;28;20105;-88
2022/08/08 00:11:31;;;;;;;7.13;3.60;;;;;;;23.33;100.00;100524.00;4978819;28;20103;-86
2022/08/08 00:14:22;;;;;;;4.25;3.22;;;;;;;23.45;100.00;100522.88;4994200;28;20052;-88
2022/08/08 00:17:12;;;;;;;4.07;3.45;;;;;;;23.41;100.00;100521.75;4994148;28;20031;-87
2022/08/08 00:19:57;;;;;;;6.50;3.42;;;;;;;23.45;100.00;100522.06;4994554;28;20360;-85
2022/08/08 00:22:44;;;;;;;9.27;3.35;;;;;;;23.52;100.00;100522.72;4993656;28;20049;-88
2022/08/08 00:25:15;;;;;;;6.20;3.35;;;;;;;23.44;100.00;100515.00;5003990;28;20039;-88
2022/08/08 00:27:42;;;;;;;4.72;3.40;;;;;;;23.43;100.00;100518.81;4994101;28;20031;-87
2022/08/08 00:30:09;;;;;;;9.40;3.38;;;;;;;23.60;100.00;100525.81;4976586;28;20101;-87
2022/08/08 00:33:07;;;;;;;4.63;3.42;;;;;;;23.55;100.00;100525.75;4993742;28;20102;-87
2022/08/08 00:36:30;;;;;;;8.52;3.33;;;;;;;23.52;100.00;100520.84;4975539;28;20510;-89
2022/08/08 00:39:01;;;;;;;;;;;;;;;23.44;100.00;100520.41;4899464;29;20044;-87
2022/08/08 00:41:33;;;;;;;5.68;4.05;;;;;;;23.43;100.00;100525.00;4914704;29;19974;-86
2022/08/08 00:43:58;;;;;;;5.05;3.72;;;;;;;23.36;100.00;100526.22;4914639;29;20051;-85
2022/08/08 00:46:42;;;;;;;5.10;4.03;;;;;;;23.35;100.00;100521.88;4914995;29;20043;-86
2022/08/08 00:49:25;;;;;;;7.88;3.60;;;;;;;23.25;100.00;100524.41;4899829;28;20533;-88
2022/08/08 00:51:57;;;;;;;6.40;3.60;;;;;;;23.22;100.00;100516.78;4994025;28;20038;-84
2022/08/08 00:55:00;;;;;;;10.52;3.30;;;;;;;23.16;100.00;100518.59;4993398;28;20403;-86
2022/08/08 00:57:44;;;;;;;3.63;3.05;;;;;;;23.09;100.00;100513.34;4979852;28;20046;-86
2022/08/08 01:00:22;;;;;;;6.65;2.90;;;;;;;23.07;100.00;100509.22;4972152;28;20047;-86
2022/08/08 01:03:09;;;;;;;3.25;2.45;;;;;;;23.09;100.00;100513.34;4974484;28;20078;-87
2022/08/08 01:06:17;;;;;;;3.47;1.90;;;;;;;23.04;100.00;100505.13;4991836;28;20038;-86
2022/08/08 01:09:15;;;;;;;7.32;2.15;;;;;;;22.98;100.00;100502.56;4993175;28;20042;-85
2022/08/08 01:11:58;;;;;;;5.97;1.80;;;;;;;22.97;100.00;100495.53;4975462;28;20049;-85
2022/08/08 01:15:01;;;;;;;8.70;1.95;;;;;;;22.98;100.00;100495.28;4993319;28;20185;-85
2022/08/08 01:18:22;;;;;;;7.63;2.15;;;;;;;22.97;100.00;100493.66;4991213;28;20439;-87
2022/08/08 01:21:23;;;;;;;6.68;1.73;;;;;;;23.07;100.00;100491.13;4934970;28;20058;-88
2022/08/08 01:23:58;;;;;;;2.65;1.50;;;;;;;22.96;100.00;100486.63;4956863;28;20070;-88
2022/08/08 01:26:43;;;;;;;6.35;1.60;;;;;;;22.91;100.00;100489.22;4957052;28;20045;-89
2022/08/08 01:29:34;;;;;;;3.88;1.45;;;;;;;22.95;100.00;100482.28;4957157;28;20042;-90
2022/08/08 01:32:15;;;;;;;5.97;1.80;;;;;;;22.91;100.00;100483.81;4957561;28;20042;-89
2022/08/08 01:34:43;;;;;;;3.45;1.20;;;;;;;22.83;100.00;100486.94;4958422;28;20097;-91
2022/08/08 01:38:00;;;;;;;3.53;1.25;;;;;;;22.76;100.00;100480.03;4957920;28;20035;-88
2022/08/08 01:40:52;;;;;;;5.57;1.30;;;;;;;22.74;100.00;100493.75;4957225;28;20042;-90
2022/08/08 01:43:31;;;;;;;3.83;1.25;;;;;;;22.74;100.00;100488.38;4956868;28;20504;-89
2022/08/08 01:45:56;;;;;;;8.05;1.58;;;;;;;22.73;100.00;100484.03;4956926;28;21400;-86
2022/08/08 01:48:40;;;;;;;2.05;1.25;;;;;;;22.74;100.00;100480.25;4956642;28;20054;-88
2022/08/08 01:51:44;;;;;;;2.28;1.25;;;;;;;22.88;99.08;100488.88;4957074;28;20046;-88
2022/08/08 01:54:22;;;;;;;2.22;1.17;;;;;;;22.84;99.44;100476.91;4956632;28;20035;-88
2022/08/08 01:56:57;;;;;;;3.17;1.40;;;;;;;22.82;99.69;100477.16;4956611;28;20035;-88
2022/08/08 01:59:43;;;;;;;3.47;1.17;;;;;;;22.78;100.00;100480.59;4956637;28;20507;-88
2022/08/08 02:02:26;;;;;;;2.65;1.40;;;;;;;22.93;100.00;100484.41;4956779;28;20503;-91
2022/08/08 02:05:10;;;;;;;1.60;1.17;;;;;;;22.86;99.98;100491.84;4974311;28;20511;-88
2022/08/08 02:08:07;;;;;;;6.50;1.38;;;;;;;22.81;100.00;100483.63;4956624;28;20138;-88
2022/08/08 02:10:52;;;;;;;7.35;1.65;;;;;;;22.80;100.00;100476.59;4948424;28;20047;-85
2022/08/08 02:13:32;;;;;;;8.27;1.45;;;;;;;22.77;100.00;100471.66;4956670;28;20038;-87
2022/08/08 02:16:23;;;;;;;3.50;1.42;;;;;;;22.87;100.00;100481.88;4956699;28;20404;-86
2022/08/08 02:19:01;;;;;;;4.78;1.15;;;;;;;22.86;100.00;100464.81;4990604;28;20054;-85
2022/08/08 02:24:57;;;;;;;2.58;1.23;;;;;;;22.64;100.00;100450.31;4981594;28;20074;-88
2022/08/08 02:27:48;;;;;;;1.80;1.40;;;;;;;22.71;100.00;100451.03;4962260;28;20074;-87
2022/08/08 02:30:21;;;;;;;4.05;1.20;;;;;;;22.71;100.00;100453.72;4958940;28;20035;-85
2022/08/08 02:36:48;;;;;;;3.17;0.98;;;;;;;22.66;100.00;100459.06;4978473;28;20058;-87
2022/08/08 02:39:52;;;;;;;1.85;1.13;;;;;;;22.64;100.00;100472.75;4979881;28;20055;-85
2022/08/08 02:42:30;;;;;;;4.68;1.15;;;;;;;22.82;100.00;100466.38;4980926;28;20035;-86
2022/08/08 02:45:21;;;;;;;4.30;1.67;;;;;;;22.76;100.00;100466.53;4993509;28;20042;-86
2022/08/08 02:48:06;;;;;;;;;;;;;;;22.70;100.00;100462.91;4960714;28;20062;-88
2022/08/08 02:50:56;;;;;;;6.13;1.65;;;;;;;22.60;100.00;100455.38;4959751;28;20303;-86
2022/08/08 02:53:51;;;;;;;2.67;1.60;;;;;;;22.63;100.00;100456.81;4959861;28;20089;-87
2022/08/08 02:56:37;;;;;;;4.43;1.85;;;;;;;22.55;100.00;100462.59;4959604;28;20126;-87
2022/08/08 02:59:43;;;;;;;7.20;1.60;;;;;;;22.45;100.00;100463.22;4959469;28;20496;-87
2022/08/08 03:02:31;;;;;;;7.22;1.77;;;;;;;22.42;100.00;100446.66;4976732;28;20034;-86
2022/08/08 03:05:21;;;;;;;3.85;1.90;;;;;;;22.40;100.00;100441.53;4976491;28;20480;-87
2022/08/08 03:08:18;;;;;;;6.30;1.58;;;;;;;22.43;100.00;100443.75;4959437;28;20070;-86
2022/08/08 03:11:22;;;;;;;2.20;1.55;;;;;;;22.49;100.00;100442.78;4959252;28;20047;-86
2022/08/08 03:14:06;;;;;;;2.22;1.45;;;;;;;22.58;100.00;100444.00;4959104;28;20407;-87
2022/08/08 03:16:35;;;;;;;9.90;1.92;;;;;;;22.57;100.00;100434.25;4959588;28;20449;-88
2022/08/08 03:19:18;;;;;;;7.63;1.95;;;;;;;22.49;100.00;100436.53;4976304;28;20480;-88
2022/08/08 03:21:44;;;;;;;6.38;2.08;;;;;;;22.47;100.00;100438.69;4976175;28;20039;-88
2022/08/08 03:24:10;;;;;;;2.45;1.52;;;;;;;22.50;100.00;100449.00;4958895;28;20034;-87
2022/08/08 03:26:42;;;;;;;7.82;1.90;;;;;;;22.34;100.00;100452.47;4959095;28;20057;-87
2022/08/08 03:29:16;;;;;;;3.97;1.65;;;;;;;22.42;100.00;100457.47;4959210;28;20097;-88
2022/08/08 03:34:27;;;;;;;5.40;1.77;;;;;;;22.17;100.00;100459.69;4976360;28;20043;-87
2022/08/08 03:36:53;;;;;;;4.97;1.80;;;;;;;22.15;100.00;100462.59;4958718;28;20023;-88
2022/08/08 03:39:19;;;;;;;6.88;1.80;;;;;;;22.14;100.00;100460.97;4959105;28;20035;-88
2022/08/08 03:41:46;;;;;;;11.52;2.35;;;;;;;22.05;100.00;100447.03;4958876;28;20042;-87
2022/08/08 03:44:11;;;;;;;4.90;1.92;;;;;;;22.02;100.00;100463.72;4958899;28;20062;-89
2022/08/08 03:46:47;;;;;;;2.95;2.35;;;;;;;21.99;100.00;100453.38;4959287;28;20046;-86
2022/08/08 03:49:21;;;;;;;3.20;1.80;;;;;;;22.11;100.00;100451.47;4958871;28;20046;-87
2022/08/08 03:51:55;;;;;;;4.65;2.05;;;;;;;22.07;100.00;100449.50;4958460;28;20039;-88
2022/08/08 03:54:25;;;;;;;8.93;2.05;;;;;;;22.10;100.00;100454.44;4958613;28;20142;-85
2022/08/08 03:56:54;;;;;;;6.50;2.28;;;;;;;22.01;100.00;100462.06;4975629;28;20045;-88
2022/08/08 03:59:20;;;;;;;5.10;1.65;;;;;;;21.85;100.00;100473.56;4958017;28;20050;-86
2022/08/08 04:01:46;;;;;;;4.40;1.65;;;;;;;21.77;100.00;100478.50;4958257;28;20046;-87
2022/08/08 04:04:12;;;;;;;5.38;2.03;;;;;;;21.77;100.00;100473.09;4958086;28;20039;-86
2022/08/08 04:06:54;;;;;;;3.85;1.70;;;;;;;21.81;100.00;100477.78;4958922;28;20046;-85
2022/08/08 04:09:20;;;;;;;5.68;2.10;;;;;;;21.95;100.00;100473.81;4958054;28;20035;-86
2022/08/08 04:11:46;;;;;;;5.78;2.00;;;;;;;21.91;100.00;100478.03;4958243;28;20042;-85
2022/08/08 04:14:12;;;;;;;6.25;2.30;;;;;;;21.74;100.00;100476.28;4975645;28;20482;-86
2022/08/08 04:16:38;;;;;;;7.10;2.00;;;;;;;21.71;100.00;100477.56;4958504;28;20495;-85
2022/08/08 04:19:04;;;;;;;3.95;1.83;;;;;;;21.67;100.00;100476.41;4958175;28;20047;-86
2022/08/08 04:21:30;;;;;;;3.22;2.10;;;;;;;21.71;100.00;100476.75;4975513;28;20078;-87
2022/08/08 04:23:59;;;;;;;4.57;1.90;;;;;;;21.75;100.00;100489.53;4958394;28;20066;-87
2022/08/08 04:26:25;;;;;;;2.22;1.88;;;;;;;21.75;100.00;100488.69;4959317;28;20582;-87
2022/08/08 04:28:51;;;;;;;2.75;1.85;;;;;;;21.72;100.00;100500.78;4957940;28;20083;-86
2022/08/08 04:31:16;;;;;;;5.40;1.90;;;;;;;21.77;100.00;100503.63;4958249;28;20041;-86
2022/08/08 04:33:42;;;;;;;3.28;2.03;;;;;;;21.89;100.00;100512.53;4957974;28;20043;-87
2022/08/08 04:36:09;;;;;;;7.25;1.95;;;;;;;21.89;100.00;100506.28;4957950;28;20125;-87
2022/08/08 04:38:35;;;;;;;6.93;1.85;;;;;;;21.97;100.00;100506.78;4957675;28;20121;-86
2022/08/08 04:41:01;;;;;;;5.57;1.50;;;;;;;22.04;100.00;100515.56;4974816;28;20170;-85
2022/08/08 04:43:27;;;;;;;4.03;1.88;;;;;;;21.97;100.00;100511.38;4974701;28;20031;-85
2022/08/08 04:45:55;;;;;;;4.28;1.67;;;;;;;22.07;100.00;100522.38;4957197;28;20483;-87
2022/08/08 04:48:22;;;;;;;4.25;1.60;;;;;;;22.07;100.00;100523.19;4974600;28;20340;-88
2022/08/08 04:50:47;;;;;;;3.75;1.85;;;;;;;22.12;100.00;100530.56;4957232;28;20143;-88
2022/08/08 04:53:15;;;;;;;6.18;1.60;;;;;;;22.00;100.00;100519.81;4957379;28;20027;-89
2022/08/08 04:55:44;;;;;;;12.85;2.25;;;;;;;21.92;100.00;100522.03;4957204;28;20070;-86
2022/08/08 04:58:13;;;;;;;7.13;1.70;;;;;;;21.99;100.00;100518.16;4957439;28;20144;-86
2022/08/08 05:00:40;;;;;;;2.95;1.45;;;;;;;22.12;100.00;100526.00;4957642;28;20035;-86
2022/08/08 05:03:06;;;;;;;7.10;1.60;;;;;;;22.17;100.00;100524.47;4974510;28;20035;-91
2022/08/08 05:05:32;;;;;;;10.35;1.73;;;;;;;22.01;100.00;100534.94;4957444;28;20053;-90
2022/08/08 05:07:58;;;;;;;11.80;2.17;;;;;;;21.98;100.00;100531.88;4941693;28;20221;-88
2022/08/08 05:10:28;;;;;;;8.10;1.90;;;;;;;21.99;100.00;100531.66;4958255;28;20447;-89
2022/08/08 05:12:55;;;;;;;9.20;1.75;;;;;;;22.03;100.00;100535.53;4981227;28;20053;-87
2022/08/08 05:15:21;;;;;;;5.07;1.60;;;;;;;22.08;100.00;100543.72;4999001;28;20026;-88
2022/08/08 05:17:47;;;;;;;5.10;1.67;;;;;;;22.17;100.00;100542.28;4981398;28;20070;-89
2022/08/08 05:20:12;;;;;;;4.65;1.77;;;;;;;22.23;100.00;100545.13;4986990;28;20038;-87
2022/08/08 05:22:40;;;;;;;4.05;2.03;;;;;;;22.30;100.00;100552.03;4958648;28;20488;-86
2022/08/08 05:25:07;;;;;;;6.82;2.42;;;;;;;22.20;100.00;100561.81;4956748;28;20078;-88
2022/08/08 05:27:32;;;;;;;13.40;2.58;;;;;;;21.99;100.00;100555.94;4957392;28;20464;-88
2022/08/08 05:29:58;;;;;;;5.78;2.05;;;;;;;21.91;100.00;100561.69;4974269;28;20070;-88
2022/08/08 05:32:26;;;;;;;4.25;1.90;;;;;;;21.89;100.00;100571.91;4956687;28;20031;-88
2022/08/08 05:34:52;;;;;;;9.93;2.70;;;;;;;21.90;100.00;100573.56;4956624;28;20507;-87
2022/08/08 05:37:24;;;;;;;3.15;2.10;;;;;;;21.91;100.00;100567.09;4956724;28;20039;-86
2022/08/08 05:39:53;;;;;;;5.13;2.45;;;;;;;21.98;100.00;100565.09;4956614;28;20500;-86
2022/08/08 05:42:41;;;;;;;3.22;2.10;;;;;;;21.97;100.00;100573.44;4956606;28;20551;-87
2022/08/08 05:45:12;;;;;;;5.57;2.22;;;;;;;21.96;100.00;100572.63;4956623;28;20046;-87
2022/08/08 05:47:41;;;;;;;9.43;2.05;;;;;;;22.00;100.00;100568.41;4956453;28;20126;-91
2022/08/08 05:50:08;;;;;;;11.82;1.98;;;;;;;22.01;100.00;100569.19;4957518;28;20038;-89
2022/08/08 05:52:37;;;;;;;6.45;2.78;;;;;;;22.12;100.00;100571.91;4974211;28;20035;-89
2022/08/08 05:55:10;;;;;;;3.60;2.20;;;;;;;22.11;100.00;100570.25;4957172;28;20071;-88
2022/08/08 05:57:39;;;;;;;3.25;2.50;;;;;;;22.05;100.00;100568.50;4956767;28;20374;-87
2022/08/08 06:00:09;;;;;;;4.22;2.03;;;;;;;21.99;100.00;100577.53;4956745;28;20042;-88
2022/08/08 06:06:00;;;;;;;6.18;2.15;;;;;;;22.14;100.00;100585.97;4974220;28;20562;-89
2022/08/08 06:08:35;;;;;;;9.93;2.50;;;;;;;22.13;100.00;100589.75;4956481;28;20047;-88
2022/08/08 06:11:05;;;;;;;5.07;2.75;;;;;;;22.11;100.00;100591.84;4956445;28;20104;-89
2022/08/08 06:13:32;;;;;;;5.47;2.60;;;;;;;22.11;100.00;100591.00;4956712;28;20042;-88
2022/08/08 06:15:58;;;;;;;7.53;2.60;;;;;;;22.04;100.00;100585.75;4957255;28;20035;-88
2022/08/08 06:18:43;;;;;;;6.85;2.75;;;;;;;22.07;100.00;100587.16;4956340;28;20043;-88
2022/08/08 06:21:10;;;;;;;3.13;2.35;;;;;;;22.07;100.00;100590.66;4957758;28;20093;-89
2022/08/08 06:23:37;;;;;;;10.02;2.83;;;;;;;22.05;100.00;100591.97;4960373;28;20125;-88
2022/08/08 06:26:05;;;;;;;6.03;2.50;;;;;;;22.08;100.00;100600.41;4979118;28;20511;-91
2022/08/08 06:28:33;;;;;;;5.57;2.60;;;;;;;22.17;100.00;100600.91;4947205;28;20058;-88
2022/08/08 06:31:05;;;;;;;3.72;2.22;;;;;;;22.21;100.00;100602.03;4967582;28;20492;-86
2022/08/08 06:33:39;;;;;;;4.32;2.38;;;;;;;22.36;100.00;100609.66;4961035;28;20038;-89
2022/08/08 06:36:07;;;;;;;8.07;3.03;;;;;;;22.57;100.00;100612.56;4960333;28;20369;-87
2022/08/08 06:38:36;;;;;;;2.92;2.08;;;;;;;22.96;100.00;100615.53;4960023;28;20027;-88
2022/08/08 06:41:06;;;;;;;3.78;1.92;;;;;;;23.13;100.00;100617.22;4960726;28;20053;-87
2022/08/08 06:43:39;;;;;;;3.60;1.50;;;;;;;23.27;100.00;100617.75;5003038;28;20061;-85
2022/08/08 06:46:15;;;;;;;2.65;1.70;;;;;;;23.62;99.16;100615.72;4990784;28;20034;-86
2022/08/08 06:48:43;;;;;;;4.60;1.80;;;;;;;23.99;95.46;100613.31;5007473;28;20140;-87
2022/08/08 06:51:51;;;;;;;3.42;1.63;;;;;;;23.95;96.03;100624.88;4998295;28;20030;-87
2022/08/08 06:54:21;;;;;;;4.38;2.30;;;;;;;24.32;93.00;100630.63;5018665;28;20046;-87
2022/08/08 06:56:50;;;;;;;3.60;1.90;;;;;;;24.01;94.45;100630.13;5004293;28;20030;-89
2022/08/08 06:59:15;;;;;;;13.48;2.63;;;;;;;23.86;95.74;100631.78;5021003;28;20026;-87
2022/08/08 07:01:45;;;;;;;14.00;2.47;;;;;;;23.76;96.54;100628.91;5003720;28;20045;-87
2022/08/08 07:04:16;;;;;;;4.72;2.08;;;;;;;23.98;95.44;100630.63;5019994;28;20019;-84
2022/08/08 07:06:49;;;;;;;7.10;2.53;;;;;;;24.40;93.27;100628.28;5014934;28;20050;-87
2022/08/08 07:09:18;;;;;;;5.78;2.50;;;;;;;24.53;92.60;100635.22;4997137;28;20121;-86
2022/08/08 07:11:48;;;;;;;7.50;2.15;;;;;;;25.07;88.06;100638.91;4994928;28;20037;-88
2022/08/08 07:14:16;;;;;;;4.88;2.10;;;;;;;25.25;88.84;100635.03;4993436;28;20484;-85
2022/08/08 07:17:09;;;;;;;5.93;2.30;;;;;;;25.20;87.13;100639.34;4979517;28;20045;-89
2022/08/08 07:20:02;;;;;;;4.75;2.47;;;;;;;25.09;89.08;100642.22;4982189;28;20034;-89
2022/08/08 07:23:00;;;;;;;8.50;3.13;;;;;;;25.47;86.78;100647.47;4996926;28;20049;-89
2022/08/08 07:25:26;;;;;;;8.25;2.65;;;;;;;25.92;83.23;100636.22;4981027;28;20499;-94
2022/08/08 07:28:12;;;;;;;4.80;2.22;;;;;;;26.10;83.74;100633.09;4994920;28;20061;-88
2022/08/08 07:30:43;;;;;;;7.18;2.40;;;;;;;26.52;80.01;100635.81;4979808;28;20040;-88
2022/08/08 07:33:10;;;;;;;7.43;2.20;;;;;;;26.58;79.91;100647.56;4978214;28;20038;-87
2022/08/08 07:35:38;;;;;;;5.82;1.88;;;;;;;26.90;78.00;100637.38;4993327;28;20065;-86
2022/08/08 07:52:55;;;;;;;4.00;1.40;;;;;;;28.31;72.02;100646.78;5506561;22;20037;-88
2022/08/08 09:35:57;;;;;;;;;;;;;;;32.23;46.09;100652.22;5415786;22;20057;-87
2022/08/08 09:38:52;;;;;;;2.92;1.30;;;;;;;31.86;46.44;100641.34;5036233;28;19937;-87
2022/08/08 09:41:42;;;;;;;3.70;1.40;;;;;;;32.49;45.61;100638.00;5057091;28;20025;-90
2022/08/08 10:17:55;;;;;;;;;;;;;;;31.31;48.15;100606.59;5118274;22;20089;-85
2022/08/08 11:15:22;;;;;;;6.60;2.50;;;;;;;29.94;53.20;100583.66;5194244;22;20025;-85
2022/08/08 11:18:22;;;;;;;3.47;2.63;;;;;;;30.09;52.83;100580.78;5040294;28;20053;-88
2022/08/08 11:32:21;;;;;;;4.80;2.55;;;;;;;31.00;48.80;100576.94;4673881;22;20088;-89
2022/08/08 12:27:16;;;;;;;4.35;2.70;;;;;;;30.01;52.86;100540.38;4946308;29;20047;-84
2022/08/08 12:29:54;;;;;;;13.27;3.40;;;;;;;29.73;53.37;100538.47;4948872;29;20131;-83
2022/08/08 12:32:42;;;;;;;18.63;3.90;;;;;;;29.74;52.56;100526.44;4935294;29;20063;-90
2022/08/08 12:35:20;;;;;;;15.52;12.35;;;;;;;29.67;53.28;100536.88;4950040;29;20044;-88
2022/08/08 12:38:01;;;;;;;7.78;6.38;;;;;;;29.67;53.29;100528.69;4949425;29;20062;-91
2022/08/08 12:40:46;;;;;;;5.50;3.28;;;;;;;29.83;52.25;100530.19;4948598;29;20066;-90
2022/08/08 12:43:18;;;;;;;11.50;3.50;;;;;;;30.00;51.23;100522.34;4950092;29;20046;-90
2022/08/08 12:45:45;;;;;;;5.70;3.28;;;;;;;29.82;52.89;100525.81;4896863;29;20051;-86
2022/08/08 12:48:23;;;;;;;3.35;2.80;;;;;;;29.90;52.46;100521.66;4931381;29;20489;-85
2022/08/08 12:50:53;;;;;;;5.30;3.28;;;;;;;29.98;51.70;100524.56;4941670;29;20405;-86
2022/08/08 12:53:24;;;;;;;6.78;3.88;;;;;;;29.88;52.47;100524.69;4925836;29;20035;-86
2022/08/08 12:55:51;;;;;;;7.50;4.20;;;;;;;29.83;52.55;100522.00;4946065;29;20812;-85
2022/08/08 12:58:17;;;;;;;9.45;3.08;;;;;;;29.82;53.15;100517.63;4946131;29;20083;-87
2022/08/08 13:00:49;;;;;;;3.05;2.80;;;;;;;29.85;51.55;100519.78;4944874;29;20682;-85
2022/08/08 13:03:24;;;;;;;6.10;3.15;;;;;;;29.66;52.01;100516.94;4927798;29;20044;-88
2022/08/08 13:06:13;;;;;;;4.35;2.80;;;;;;;29.71;52.12;100518.81;4928416;29;20039;-88
2022/08/08 13:08:50;;;;;;;8.02;3.35;;;;;;;29.67;53.17;100520.50;4930698;29;20052;-88
2022/08/08 13:11:21;;;;;;;5.00;3.42;;;;;;;29.44;53.85;100508.41;4939042;29;20059;-86
2022/08/08 13:14:00;;;;;;;5.85;3.45;;;;;;;29.43;53.80;100506.00;4926372;29;20066;-89
2022/08/08 13:16:26;;;;;;;5.18;3.08;;;;;;;29.67;53.12;100504.91;4945771;29;20031;-88
2022/08/08 13:18:57;;;;;;;9.57;3.65;;;;;;;29.78;53.08;100497.44;4945486;29;20036;-88
2022/08/08 13:21:23;;;;;;;6.10;3.35;;;;;;;29.52;53.80;100496.06;4913938;29;20047;-88
2022/08/08 13:23:49;;;;;;;6.32;3.28;;;;;;;29.54;53.34;100496.56;4927769;29;20048;-86
2022/08/08 13:26:28;;;;;;;7.22;3.03;;;;;;;29.56;54.14;100491.66;4944138;29;20027;-86
2022/08/08 13:28:55;;;;;;;6.30;2.97;;;;;;;29.62;53.93;100482.31;4932420;29;20070;-89
2022/08/08 13:31:20;;;;;;;6.57;3.55;;;;;;;29.68;51.74;100481.97;4929327;29;20039;-90
2022/08/08 13:33:46;;;;;;;7.45;3.63;;;;;;;29.51;52.74;100481.59;4940436;29;20035;-89
2022/08/08 13:36:13;;;;;;;7.57;3.30;;;;;;;29.57;53.63;100479.63;4921192;29;20493;-88
2022/08/08 13:38:38;;;;;;;5.88;3.33;;;;;;;29.56;54.66;100483.47;4938219;29;20040;-88
2022/08/08 13:41:05;;;;;;;5.78;3.47;;;;;;;29.79;53.54;100482.69;4938758;29;20043;-85
2022/08/08 13:43:31;;;;;;;6.47;3.17;;;;;;;29.64;53.34;100485.56;4937931;29;20031;-89
2022/08/08 13:47:01;;;;;;;5.70;3.33;;;;;;;29.71;53.80;100473.19;4943237;29;20028;-87
2022/08/08 13:50:26;;;;;;;4.25;3.08;;;;;;;29.94;53.56;100471.59;5140455;23;20040;-84
2022/08/08 14:45:06;;;;;;;3.33;2.85;;;;;;;30.02;47.97;100427.22;5377727;22;20056;-86
2022/08/08 14:47:55;;;;;;;9.68;7.65;;;;;;;29.97;47.81;100423.72;5016097;28;20518;-88
2022/08/08 14:50:26;;;;;;;5.32;2.80;;;;;;;29.93;47.65;100423.50;5046094;28;20089;-84
2022/08/08 14:52:57;;;;;;;4.20;2.78;;;;;;;29.93;47.14;100428.97;5036979;28;20038;-84
2022/08/08 14:55:25;;;;;;;7.30;3.00;;;;;;;29.91;47.68;100425.72;5045821;28;20038;-85
2022/08/08 14:57:56;;;;;;;7.68;2.60;;;;;;;29.84;47.50;100427.97;5046554;28;20033;-86
2022/08/08 15:00:22;;;;;;;5.68;2.90;;;;;;;29.79;47.12;100422.56;5034217;28;20048;-85
2022/08/08 15:03:10;;;;;;;9.90;3.00;;;;;;;29.67;48.08;100419.41;5037902;28;20033;-87
2022/08/08 15:05:36;;;;;;;3.70;3.05;;;;;;;29.65;48.06;100421.63;5035016;28;20017;-85
2022/08/08 15:08:01;;;;;;;3.38;3.03;;;;;;;29.83;47.48;100420.88;5042041;28;20048;-85
2022/08/08 15:10:27;;;;;;;4.75;2.58;;;;;;;29.76;47.53;100423.16;5042728;28;20021;-86
2022/08/08 15:12:52;;;;;;;9.30;3.33;;;;;;;29.82;47.42;100432.91;5014553;28;20030;-86
2022/08/08 15:15:19;;;;;;;4.65;3.20;;;;;;;29.93;48.18;100428.97;5043919;28;20041;-85
2022/08/08 15:17:46;;;;;;;5.45;2.95;;;;;;;29.91;48.12;100422.97;5030463;28;20033;-86
2022/08/08 15:20:14;;;;;;;8.88;3.10;;;;;;;29.91;47.23;100430.38;5029359;28;20045;-85
2022/08/08 15:22:46;;;;;;;3.92;2.88;;;;;;;29.84;47.93;100425.25;5030111;28;20037;-85
2022/08/08 15:25:13;;;;;;;4.65;2.63;;;;;;;29.89;47.51;100422.47;5030473;28;20049;-86
2022/08/08 15:27:41;;;;;;;5.00;4.35;;;;;;;29.94;47.51;100433.31;5047676;28;20041;-84
2022/08/08 15:30:08;;;;;;;5.13;2.70;;;;;;;29.86;47.38;100427.72;5045380;28;20124;-84
2022/08/08 15:32:34;;;;;;;4.55;2.55;;;;;;;29.97;47.21;100423.72;5045757;28;20029;-84
2022/08/08 15:35:00;;;;;;;3.03;2.63;;;;;;;29.99;47.01;100427.81;5045879;28;20033;-85
2022/08/08 15:37:29;;;;;;;3.70;2.33;;;;;;;29.84;46.75;100435.38;5030923;28;20129;-84
2022/08/08 15:39:54;;;;;;;9.43;3.65;;;;;;;29.73;47.15;100432.72;5014041;28;20059;-84
2022/08/08 15:42:22;;;;;;;5.90;2.80;;;;;;;29.77;47.21;100430.22;5046144;28;20128;-83
2022/08/08 15:44:47;;;;;;;3.75;2.75;;;;;;;29.81;47.55;100435.91;5045325;28;20045;-85
2022/08/08 15:47:13;;;;;;;4.68;2.42;;;;;;;29.82;47.38;100424.72;5024725;28;20592;-84
2022/08/08 15:49:43;;;;;;;3.20;2.80;;;;;;;29.87;47.23;100423.84;5044844;28;20030;-86
2022/08/08 15:52:13;;;;;;;7.55;3.40;;;;;;;30.19;46.22;100435.72;5042842;28;20025;-85
2022/08/08 15:54:40;;;;;;;8.05;3.03;;;;;;;30.15;46.76;100437.44;5025063;28;20029;-88
2022/08/08 15:57:07;;;;;;;4.50;2.75;;;;;;;30.11;46.23;100430.94;5002966;28;20033;-86
2022/08/08 15:59:37;;;;;;;6.03;2.75;;;;;;;30.10;46.24;100423.00;5036949;28;20116;-85
2022/08/08 16:02:08;;;;;;;3.72;2.40;;;;;;;30.43;45.35;100423.94;5037179;28;20501;-87
2022/08/08 16:04:33;;;;;;;4.75;2.40;;;;;;;30.36;46.03;100420.75;5035021;28;20029;-86
2022/08/08 16:06:59;;;;;;;4.03;2.80;;;;;;;30.13;46.60;100423.22;5040692;28;20340;-87
2022/08/08 16:09:27;;;;;;;5.70;2.20;;;;;;;30.06;45.85;100425.50;5039405;28;20041;-85
2022/08/08 16:11:52;;;;;;;3.75;2.70;;;;;;;30.18;45.81;100436.03;5019562;28;20037;-89
2022/08/08 16:14:18;;;;;;;5.07;2.72;;;;;;;29.97;44.46;100421.81;5036557;28;20046;-87
2022/08/08 16:16:44;;;;;;;6.65;2.50;;;;;;;29.87;44.95;100423.84;5015242;28;20043;-86
2022/08/08 16:19:09;;;;;;;6.00;2.40;;;;;;;29.89;45.38;100430.66;5010696;28;20407;-90
2022/08/08 16:21:41;;;;;;;3.05;2.53;;;;;;;30.09;43.82;100422.22;5000595;28;20376;-87
2022/08/08 16:24:11;;;;;;;3.33;2.50;;;;;;;29.93;44.53;100428.16;5028369;28;20112;-84
2022/08/08 16:26:39;;;;;;;4.97;2.45;;;;;;;29.97;44.24;100421.00;5010232;28;20034;-87
2022/08/08 16:29:13;;;;;;;5.22;2.30;;;;;;;30.09;44.39;100424.13;5033185;28;20037;-90
2022/08/08 16:31:48;;;;;;;2.92;1.95;;;;;;;30.32;44.00;100414.25;5035323;28;20044;-89
2022/08/08 16:34:17;;;;;;;5.95;2.60;;;;;;;30.12;44.18;100416.16;5036886;28;20036;-90
2022/08/08 16:36:44;;;;;;;8.82;2.35;;;;;;;29.99;45.20;100416.88;5016442;28;20084;-89
2022/08/08 16:39:10;;;;;;;4.53;2.10;;;;;;;30.01;45.19;100420.13;5037709;28;20112;-88
2022/08/08 16:41:36;;;;;;;4.88;2.03;;;;;;;30.23;44.59;100420.38;5040398;28;20466;-90
2022/08/08 16:44:02;;;;;;;2.67;2.30;;;;;;;30.05;45.25;100412.16;5039503;28;20035;-89
2022/08/08 16:46:29;;;;;;;5.10;2.75;;;;;;;30.15;45.75;100410.09;5047745;28;20119;-91
2022/08/08 16:48:58;;;;;;;6.38;2.67;;;;;;;30.26;45.40;100408.84;5022640;28;20042;-90
2022/08/08 16:54:26;;;;;;;2.33;2.10;;;;;;;29.98;44.69;100404.31;5024830;28;20056;-89
2022/08/08 16:56:59;;;;;;;3.80;2.63;;;;;;;30.10;44.96;100415.63;5004486;28;20054;-92
2022/08/08 16:59:26;;;;;;;3.75;2.47;;;;;;;30.24;43.77;100407.50;5008547;28;20030;-91
2022/08/08 17:01:55;;;;;;;4.50;2.40;;;;;;;30.16;43.70;100411.72;5009643;28;20045;-91
2022/08/08 17:04:28;;;;;;;8.35;2.50;;;;;;;30.08;44.22;100406.91;5026818;28;20038;-90
2022/08/08 17:06:57;;;;;;;5.22;2.22;;;;;;;30.01;44.78;100402.91;5036809;28;20060;-90
2022/08/08 17:09:23;;;;;;;5.35;2.50;;;;;;;30.08;44.85;100411.56;5032885;23;20042;-90
2022/08/08 17:11:50;;;;;;;3.30;2.55;;;;;;;30.23;44.15;100405.88;5020212;28;20020;-90
2022/08/08 17:14:19;;;;;;;2.88;2.03;;;;;;;30.01;44.78;100406.47;5021606;23;20046;-88
2022/08/08 17:16:45;;;;;;;6.50;2.53;;;;;;;30.10;44.52;100412.88;4989278;28;20050;-89
2022/08/08 17:19:17;;;;;;;3.25;2.30;;;;;;;29.87;45.09;100407.44;5005797;28;20089;-91
2022/08/08 17:21:50;;;;;;;6.22;2.60;;;;;;;29.77;44.92;100409.19;5000264;28;20066;-91
2022/08/08 17:24:25;;;;;;;3.50;2.30;;;;;;;29.77;45.26;100416.56;5005806;28;20042;-92
2022/08/08 17:26:52;;;;;;;4.28;2.45;;;;;;;30.04;43.93;100414.06;5009002;28;20039;-90
2022/08/08 17:29:23;;;;;;;3.88;2.10;;;;;;;29.97;44.51;100419.06;4990675;28;20042;-89
2022/08/08 17:31:51;;;;;;;5.65;2.47;;;;;;;29.97;45.07;100419.06;4988136;28;20050;-91